Terminal Aerodrome Forecast
Issued by NWS Wilmington, OH

Current Version | Previous Version | Graphics & Text | Print | Product List | Glossary On
Versions: 1 2 3 4 5 6 7 8 9 10 11 12 13 14 15 16 17 18 19 20 21 22 23 24 25
000
FTUS41 KILN 170549
TAFCVG
TAF
KCVG 170549Z 1706/1812 08004KT P6SM OVC020
      TEMPO 1706/1710 OVC015
     FM171200 11005KT P6SM BKN250
     FM171400 13007KT P6SM SCT250
     FM180300 17009KT P6SM OVC070 WS020/20040KT
     FM180600 19014KT P6SM VCSH OVC070 WS020/21045KT
     FM180900 20014G22KT 5SM -SHRA BR OVC040 WS020/21045KT=

USA.gov is the U.S. government's official web portal to all federal, state and local government web resources and services.